sensor_id;sensor_type;location;lat;lon;timestamp;P1;durP1;ratioP1;P2;durP2;ratioP2
76115;SDS011;64847;45.778;12.802;2023-12-20T00:02:48;16.07;;;14.17;;
76115;SDS011;64847;45.778;12.802;2023-12-20T00:06:12;20.17;;;17.30;;
76115;SDS011;64847;45.778;12.802;2023-12-20T00:09:36;18.37;;;15.33;;
76115;SDS011;64847;45.778;12.802;2023-12-20T00:13:01;17.40;;;14.97;;
76115;SDS011;64847;45.778;12.802;2023-12-20T00:16:25;16.77;;;15.07;;
76115;SDS011;64847;45.778;12.802;2023-12-20T00:19:48;17.03;;;15.13;;
76115;SDS011;64847;45.778;12.802;2023-12-20T00:23:12;19.80;;;17.50;;
76115;SDS011;64847;45.778;12.802;2023-12-20T00:26:36;20.80;;;17.00;;
76115;SDS011;64847;45.778;12.802;2023-12-20T00:30:00;16.33;;;14.10;;
76115;SDS011;64847;45.778;12.802;2023-12-20T00:33:24;19.57;;;15.57;;
76115;SDS011;64847;45.778;12.802;2023-12-20T00:36:48;17.93;;;15.20;;
76115;SDS011;64847;45.778;12.802;2023-12-20T00:40:12;18.63;;;15.70;;
76115;SDS011;64847;45.778;12.802;2023-12-20T00:43:36;17.77;;;15.00;;
76115;SDS011;64847;45.778;12.802;2023-12-20T00:47:00;16.77;;;14.27;;
76115;SDS011;64847;45.778;12.802;2023-12-20T00:50:24;16.10;;;13.90;;
76115;SDS011;64847;45.778;12.802;2023-12-20T00:53:49;16.40;;;14.53;;
76115;SDS011;64847;45.778;12.802;2023-12-20T00:57:13;14.27;;;12.50;;
76115;SDS011;64847;45.778;12.802;2023-12-20T01:00:37;12.93;;;11.63;;
76115;SDS011;64847;45.778;12.802;2023-12-20T01:04:01;14.70;;;13.17;;
76115;SDS011;64847;45.778;12.802;2023-12-20T01:07:25;13.77;;;12.37;;
76115;SDS011;64847;45.778;12.802;2023-12-20T01:10:49;13.83;;;12.37;;
76115;SDS011;64847;45.778;12.802;2023-12-20T01:14:13;14.00;;;12.53;;
76115;SDS011;64847;45.778;12.802;2023-12-20T01:17:37;14.00;;;12.60;;
76115;SDS011;64847;45.778;12.802;2023-12-20T01:21:01;12.97;;;11.73;;
76115;SDS011;64847;45.778;12.802;2023-12-20T01:24:25;12.43;;;11.23;;
76115;SDS011;64847;45.778;12.802;2023-12-20T01:27:49;12.30;;;11.10;;
76115;SDS011;64847;45.778;12.802;2023-12-20T01:31:13;13.13;;;11.77;;
76115;SDS011;64847;45.778;12.802;2023-12-20T01:34:37;12.93;;;11.60;;
76115;SDS011;64847;45.778;12.802;2023-12-20T01:38:02;14.60;;;12.93;;
76115;SDS011;64847;45.778;12.802;2023-12-20T01:41:26;16.73;;;13.13;;
76115;SDS011;64847;45.778;12.802;2023-12-20T01:44:50;13.63;;;12.23;;
76115;SDS011;64847;45.778;12.802;2023-12-20T01:48:14;14.43;;;12.97;;
76115;SDS011;64847;45.778;12.802;2023-12-20T01:51:38;14.77;;;12.57;;
76115;SDS011;64847;45.778;12.802;2023-12-20T01:55:02;13.43;;;12.03;;
76115;SDS011;64847;45.778;12.802;2023-12-20T01:58:26;13.63;;;11.87;;
76115;SDS011;64847;45.778;12.802;2023-12-20T02:01:51;13.03;;;11.63;;
76115;SDS011;64847;45.778;12.802;2023-12-20T02:05:15;12.17;;;10.90;;
76115;SDS011;64847;45.778;12.802;2023-12-20T02:08:40;13.07;;;10.93;;
76115;SDS011;64847;45.778;12.802;2023-12-20T02:12:04;12.83;;;10.60;;
76115;SDS011;64847;45.778;12.802;2023-12-20T02:15:29;14.30;;;11.33;;
76115;SDS011;64847;45.778;12.802;2023-12-20T02:18:53;11.57;;;10.37;;
76115;SDS011;64847;45.778;12.802;2023-12-20T02:22:17;13.13;;;10.83;;
76115;SDS011;64847;45.778;12.802;2023-12-20T02:25:41;12.13;;;10.90;;
76115;SDS011;64847;45.778;12.802;2023-12-20T02:29:05;11.93;;;10.67;;
76115;SDS011;64847;45.778;12.802;2023-12-20T02:32:29;10.43;;;9.27;;
76115;SDS011;64847;45.778;12.802;2023-12-20T02:35:53;11.57;;;10.37;;
76115;SDS011;64847;45.778;12.802;2023-12-20T02:39:17;11.37;;;10.17;;
76115;SDS011;64847;45.778;12.802;2023-12-20T02:42:41;10.90;;;9.57;;
76115;SDS011;64847;45.778;12.802;2023-12-20T02:46:05;10.27;;;9.13;;
76115;SDS011;64847;45.778;12.802;2023-12-20T02:49:29;11.13;;;9.97;;
76115;SDS011;64847;45.778;12.802;2023-12-20T02:52:53;10.93;;;9.83;;
76115;SDS011;64847;45.778;12.802;2023-12-20T02:56:17;10.30;;;9.27;;
76115;SDS011;64847;45.778;12.802;2023-12-20T02:59:41;10.50;;;9.47;;
76115;SDS011;64847;45.778;12.802;2023-12-20T03:03:05;10.43;;;9.30;;
76115;SDS011;64847;45.778;12.802;2023-12-20T03:06:29;9.43;;;8.43;;
76115;SDS011;64847;45.778;12.802;2023-12-20T03:09:53;10.50;;;9.47;;
76115;SDS011;64847;45.778;12.802;2023-12-20T03:13:18;10.00;;;9.00;;
76115;SDS011;64847;45.778;12.802;2023-12-20T03:16:46;10.07;;;9.07;;
76115;SDS011;64847;45.778;12.802;2023-12-20T03:20:10;9.87;;;8.87;;
76115;SDS011;64847;45.778;12.802;2023-12-20T03:23:34;10.10;;;8.90;;
76115;SDS011;64847;45.778;12.802;2023-12-20T03:26:58;10.27;;;9.13;;
76115;SDS011;64847;45.778;12.802;2023-12-20T03:30:22;10.67;;;9.60;;
76115;SDS011;64847;45.778;12.802;2023-12-20T03:33:46;9.53;;;8.53;;
76115;SDS011;64847;45.778;12.802;2023-12-20T03:37:10;11.07;;;9.03;;
76115;SDS011;64847;45.778;12.802;2023-12-20T03:40:34;9.70;;;8.70;;
76115;SDS011;64847;45.778;12.802;2023-12-20T03:43:58;8.83;;;7.93;;
76115;SDS011;64847;45.778;12.802;2023-12-20T03:47:22;8.83;;;7.93;;
76115;SDS011;64847;45.778;12.802;2023-12-20T03:50:46;9.53;;;7.47;;
76115;SDS011;64847;45.778;12.802;2023-12-20T03:54:10;8.53;;;7.70;;
76115;SDS011;64847;45.778;12.802;2023-12-20T03:57:34;9.73;;;8.73;;
76115;SDS011;64847;45.778;12.802;2023-12-20T04:00:58;8.13;;;7.30;;
76115;SDS011;64847;45.778;12.802;2023-12-20T04:04:22;9.20;;;8.30;;
76115;SDS011;64847;45.778;12.802;2023-12-20T04:07:46;8.10;;;7.30;;
76115;SDS011;64847;45.778;12.802;2023-12-20T04:11:10;8.43;;;7.60;;
76115;SDS011;64847;45.778;12.802;2023-12-20T04:14:34;8.47;;;7.67;;
76115;SDS011;64847;45.778;12.802;2023-12-20T04:17:58;10.37;;;8.67;;
76115;SDS011;64847;45.778;12.802;2023-12-20T04:21:22;9.80;;;8.10;;
76115;SDS011;64847;45.778;12.802;2023-12-20T04:24:46;8.37;;;7.47;;
76115;SDS011;64847;45.778;12.802;2023-12-20T04:28:10;8.47;;;7.67;;
76115;SDS011;64847;45.778;12.802;2023-12-20T04:31:34;8.53;;;7.57;;
76115;SDS011;64847;45.778;12.802;2023-12-20T04:34:57;13.47;;;8.70;;
76115;SDS011;64847;45.778;12.802;2023-12-20T04:38:22;9.13;;;7.77;;
76115;SDS011;64847;45.778;12.802;2023-12-20T04:41:46;9.53;;;8.27;;
76115;SDS011;64847;45.778;12.802;2023-12-20T04:45:10;9.33;;;8.17;;
76115;SDS011;64847;45.778;12.802;2023-12-20T04:48:34;7.43;;;6.73;;
76115;SDS011;64847;45.778;12.802;2023-12-20T04:51:58;7.43;;;6.73;;
76115;SDS011;64847;45.778;12.802;2023-12-20T04:55:22;7.67;;;6.87;;
76115;SDS011;64847;45.778;12.802;2023-12-20T04:58:46;7.60;;;6.80;;
76115;SDS011;64847;45.778;12.802;2023-12-20T05:02:10;6.97;;;6.27;;
76115;SDS011;64847;45.778;12.802;2023-12-20T05:05:34;6.57;;;5.90;;
76115;SDS011;64847;45.778;12.802;2023-12-20T05:08:58;7.90;;;5.83;;
76115;SDS011;64847;45.778;12.802;2023-12-20T05:12:23;6.33;;;5.83;;
76115;SDS011;64847;45.778;12.802;2023-12-20T05:15:47;6.33;;;5.73;;
76115;SDS011;64847;45.778;12.802;2023-12-20T05:19:11;5.90;;;5.30;;
76115;SDS011;64847;45.778;12.802;2023-12-20T05:22:35;6.17;;;5.60;;
76115;SDS011;64847;45.778;12.802;2023-12-20T05:25:59;6.20;;;5.60;;
76115;SDS011;64847;45.778;12.802;2023-12-20T05:29:23;6.20;;;5.63;;
76115;SDS011;64847;45.778;12.802;2023-12-20T05:32:47;6.40;;;5.80;;
76115;SDS011;64847;45.778;12.802;2023-12-20T05:36:11;6.63;;;5.97;;
76115;SDS011;64847;45.778;12.802;2023-12-20T05:39:35;6.00;;;5.40;;
76115;SDS011;64847;45.778;12.802;2023-12-20T05:42:59;6.30;;;5.70;;
76115;SDS011;64847;45.778;12.802;2023-12-20T05:46:23;8.23;;;6.77;;
76115;SDS011;64847;45.778;12.802;2023-12-20T05:49:47;7.43;;;6.63;;
76115;SDS011;64847;45.778;12.802;2023-12-20T05:53:11;7.40;;;6.60;;
76115;SDS011;64847;45.778;12.802;2023-12-20T05:56:35;7.20;;;6.50;;
76115;SDS011;64847;45.778;12.802;2023-12-20T05:59:59;6.63;;;6.03;;
76115;SDS011;64847;45.778;12.802;2023-12-20T06:03:23;6.17;;;5.57;;
76115;SDS011;64847;45.778;12.802;2023-12-20T06:06:47;6.60;;;5.63;;
76115;SDS011;64847;45.778;12.802;2023-12-20T06:10:13;6.47;;;5.63;;
76115;SDS011;64847;45.778;12.802;2023-12-20T06:13:38;6.10;;;5.50;;
76115;SDS011;64847;45.778;12.802;2023-12-20T06:17:02;5.70;;;5.20;;
76115;SDS011;64847;45.778;12.802;2023-12-20T06:20:26;6.20;;;5.63;;
76115;SDS011;64847;45.778;12.802;2023-12-20T06:23:50;5.43;;;4.93;;
76115;SDS011;64847;45.778;12.802;2023-12-20T06:27:14;5.57;;;5.07;;
76115;SDS011;64847;45.778;12.802;2023-12-20T06:30:39;5.40;;;4.90;;
76115;SDS011;64847;45.778;12.802;2023-12-20T06:34:03;6.20;;;5.60;;
76115;SDS011;64847;45.778;12.802;2023-12-20T06:37:29;6.70;;;6.10;;
76115;SDS011;64847;45.778;12.802;2023-12-20T06:40:53;6.50;;;5.17;;
76115;SDS011;64847;45.778;12.802;2023-12-20T06:44:17;5.83;;;5.27;;
76115;SDS011;64847;45.778;12.802;2023-12-20T06:47:41;5.60;;;4.87;;
76115;SDS011;64847;45.778;12.802;2023-12-20T06:51:05;4.97;;;4.50;;
76115;SDS011;64847;45.778;12.802;2023-12-20T06:54:29;5.67;;;5.17;;
76115;SDS011;64847;45.778;12.802;2023-12-20T06:57:54;6.00;;;5.40;;
76115;SDS011;64847;45.778;12.802;2023-12-20T07:01:20;5.77;;;5.17;;
76115;SDS011;64847;45.778;12.802;2023-12-20T07:04:46;6.03;;;5.43;;
76115;SDS011;64847;45.778;12.802;2023-12-20T07:08:10;5.57;;;5.07;;
76115;SDS011;64847;45.778;12.802;2023-12-20T07:11:33;5.90;;;5.30;;
76115;SDS011;64847;45.778;12.802;2023-12-20T07:14:57;5.33;;;4.87;;
76115;SDS011;64847;45.778;12.802;2023-12-20T07:18:21;5.10;;;4.57;;
76115;SDS011;64847;45.778;12.802;2023-12-20T07:21:45;5.37;;;4.87;;
76115;SDS011;64847;45.778;12.802;2023-12-20T07:25:09;4.73;;;4.37;;
76115;SDS011;64847;45.778;12.802;2023-12-20T07:28:33;4.70;;;4.30;;
76115;SDS011;64847;45.778;12.802;2023-12-20T07:32:00;5.10;;;4.63;;
76115;SDS011;64847;45.778;12.802;2023-12-20T07:35:26;5.20;;;4.73;;
76115;SDS011;64847;45.778;12.802;2023-12-20T07:38:49;5.50;;;5.00;;
76115;SDS011;64847;45.778;12.802;2023-12-20T07:42:13;6.40;;;5.80;;
76115;SDS011;64847;45.778;12.802;2023-12-20T07:45:37;7.00;;;6.30;;
76115;SDS011;64847;45.778;12.802;2023-12-20T07:49:01;8.10;;;7.00;;
76115;SDS011;64847;45.778;12.802;2023-12-20T07:52:25;7.17;;;6.47;;
76115;SDS011;64847;45.778;12.802;2023-12-20T07:55:56;6.83;;;6.00;;
76115;SDS011;64847;45.778;12.802;2023-12-20T07:59:20;6.20;;;5.60;;
76115;SDS011;64847;45.778;12.802;2023-12-20T08:02:45;6.47;;;5.83;;
76115;SDS011;64847;45.778;12.802;2023-12-20T08:06:10;6.10;;;5.50;;
76115;SDS011;64847;45.778;12.802;2023-12-20T08:13:01;5.23;;;4.73;;
76115;SDS011;64847;45.778;12.802;2023-12-20T08:16:25;5.07;;;4.67;;
76115;SDS011;64847;45.778;12.802;2023-12-20T08:19:50;4.90;;;4.50;;
76115;SDS011;64847;45.778;12.802;2023-12-20T08:23:14;4.97;;;4.33;;
76115;SDS011;64847;45.778;12.802;2023-12-20T08:26:39;5.03;;;4.63;;
76115;SDS011;64847;45.778;12.802;2023-12-20T08:30:08;4.90;;;4.43;;
76115;SDS011;64847;45.778;12.802;2023-12-20T08:33:39;4.73;;;4.23;;
76115;SDS011;64847;45.778;12.802;2023-12-20T08:37:07;5.23;;;4.73;;
76115;SDS011;64847;45.778;12.802;2023-12-20T08:40:31;5.80;;;4.80;;
76115;SDS011;64847;45.778;12.802;2023-12-20T08:43:55;4.43;;;4.03;;
76115;SDS011;64847;45.778;12.802;2023-12-20T08:47:19;4.37;;;3.97;;
76115;SDS011;64847;45.778;12.802;2023-12-20T08:50:44;4.23;;;3.83;;
76115;SDS011;64847;45.778;12.802;2023-12-20T08:54:09;3.70;;;3.40;;
76115;SDS011;64847;45.778;12.802;2023-12-20T08:57:35;3.90;;;3.53;;
76115;SDS011;64847;45.778;12.802;2023-12-20T09:01:00;4.10;;;3.80;;
76115;SDS011;64847;45.778;12.802;2023-12-20T09:04:24;3.70;;;3.40;;
76115;SDS011;64847;45.778;12.802;2023-12-20T09:07:49;4.50;;;3.67;;
76115;SDS011;64847;45.778;12.802;2023-12-20T09:11:13;4.30;;;3.90;;
76115;SDS011;64847;45.778;12.802;2023-12-20T09:14:36;4.10;;;3.70;;
76115;SDS011;64847;45.778;12.802;2023-12-20T09:18:01;4.97;;;4.20;;
76115;SDS011;64847;45.778;12.802;2023-12-20T09:21:25;3.67;;;3.37;;
76115;SDS011;64847;45.778;12.802;2023-12-20T09:24:49;4.17;;;3.77;;
76115;SDS011;64847;45.778;12.802;2023-12-20T09:28:13;4.20;;;3.90;;
76115;SDS011;64847;45.778;12.802;2023-12-20T09:31:43;3.90;;;3.60;;
76115;SDS011;64847;45.778;12.802;2023-12-20T09:35:08;4.53;;;4.13;;
76115;SDS011;64847;45.778;12.802;2023-12-20T09:38:32;4.63;;;3.80;;
76115;SDS011;64847;45.778;12.802;2023-12-20T09:42:00;5.13;;;3.83;;
76115;SDS011;64847;45.778;12.802;2023-12-20T09:45:27;4.30;;;3.90;;
76115;SDS011;64847;45.778;12.802;2023-12-20T09:48:51;5.10;;;4.20;;
76115;SDS011;64847;45.778;12.802;2023-12-20T09:52:15;3.67;;;3.33;;
76115;SDS011;64847;45.778;12.802;2023-12-20T09:55:41;4.50;;;3.67;;
76115;SDS011;64847;45.778;12.802;2023-12-20T09:59:05;3.53;;;3.20;;
76115;SDS011;64847;45.778;12.802;2023-12-20T10:02:29;3.50;;;3.20;;
76115;SDS011;64847;45.778;12.802;2023-12-20T10:06:01;4.13;;;3.70;;
76115;SDS011;64847;45.778;12.802;2023-12-20T10:09:28;3.77;;;3.47;;
76115;SDS011;64847;45.778;12.802;2023-12-20T10:13:05;4.77;;;3.90;;
76115;SDS011;64847;45.778;12.802;2023-12-20T10:16:29;4.37;;;3.97;;
76115;SDS011;64847;45.778;12.802;2023-12-20T10:19:54;3.50;;;3.20;;
76115;SDS011;64847;45.778;12.802;2023-12-20T10:23:18;4.20;;;3.63;;
76115;SDS011;64847;45.778;12.802;2023-12-20T10:26:42;4.07;;;3.73;;
76115;SDS011;64847;45.778;12.802;2023-12-20T10:30:06;6.97;;;4.30;;
76115;SDS011;64847;45.778;12.802;2023-12-20T10:33:30;5.60;;;3.97;;
76115;SDS011;64847;45.778;12.802;2023-12-20T10:36:54;7.57;;;4.97;;
76115;SDS011;64847;45.778;12.802;2023-12-20T10:40:21;8.40;;;4.87;;
76115;SDS011;64847;45.778;12.802;2023-12-20T10:43:48;5.00;;;4.50;;
76115;SDS011;64847;45.778;12.802;2023-12-20T10:47:13;5.60;;;5.10;;
76115;SDS011;64847;45.778;12.802;2023-12-20T10:50:38;5.60;;;4.93;;
76115;SDS011;64847;45.778;12.802;2023-12-20T10:54:02;5.17;;;4.67;;
76115;SDS011;64847;45.778;12.802;2023-12-20T10:57:26;6.43;;;5.27;;
76115;SDS011;64847;45.778;12.802;2023-12-20T11:00:51;5.77;;;5.27;;
76115;SDS011;64847;45.778;12.802;2023-12-20T11:04:21;5.77;;;5.27;;
76115;SDS011;64847;45.778;12.802;2023-12-20T11:07:55;7.23;;;6.57;;
76115;SDS011;64847;45.778;12.802;2023-12-20T11:11:35;7.60;;;6.90;;
76115;SDS011;64847;45.778;12.802;2023-12-20T11:15:01;7.80;;;7.10;;
76115;SDS011;64847;45.778;12.802;2023-12-20T11:18:28;8.60;;;7.80;;
76115;SDS011;64847;45.778;12.802;2023-12-20T11:21:52;9.13;;;7.73;;
76115;SDS011;64847;45.778;12.802;2023-12-20T11:25:19;8.90;;;8.10;;
76115;SDS011;64847;45.778;12.802;2023-12-20T11:28:47;8.27;;;7.57;;
76115;SDS011;64847;45.778;12.802;2023-12-20T11:35:51;10.27;;;9.23;;
76115;SDS011;64847;45.778;12.802;2023-12-20T11:39:35;9.87;;;8.97;;
76115;SDS011;64847;45.778;12.802;2023-12-20T11:43:00;10.53;;;9.53;;
76115;SDS011;64847;45.778;12.802;2023-12-20T11:46:26;10.90;;;9.33;;
76115;SDS011;64847;45.778;12.802;2023-12-20T11:49:50;11.40;;;10.40;;
76115;SDS011;64847;45.778;12.802;2023-12-20T11:53:14;12.10;;;10.90;;
76115;SDS011;64847;45.778;12.802;2023-12-20T11:56:40;12.73;;;11.53;;
76115;SDS011;64847;45.778;12.802;2023-12-20T12:00:04;13.97;;;12.60;;
76115;SDS011;64847;45.778;12.802;2023-12-20T12:03:32;14.20;;;12.77;;
76115;SDS011;64847;45.778;12.802;2023-12-20T12:06:56;13.67;;;12.33;;
76115;SDS011;64847;45.778;12.802;2023-12-20T12:10:20;14.13;;;12.83;;
76115;SDS011;64847;45.778;12.802;2023-12-20T12:13:44;14.67;;;13.20;;
76115;SDS011;64847;45.778;12.802;2023-12-20T12:17:11;13.90;;;12.60;;
76115;SDS011;64847;45.778;12.802;2023-12-20T12:20:36;13.23;;;12.03;;
76115;SDS011;64847;45.778;12.802;2023-12-20T12:24:06;14.83;;;13.47;;
76115;SDS011;64847;45.778;12.802;2023-12-20T12:27:39;13.27;;;12.07;;
76115;SDS011;64847;45.778;12.802;2023-12-20T12:31:06;13.83;;;12.43;;
76115;SDS011;64847;45.778;12.802;2023-12-20T12:34:34;14.37;;;13.07;;
76115;SDS011;64847;45.778;12.802;2023-12-20T12:37:59;14.13;;;12.83;;
76115;SDS011;64847;45.778;12.802;2023-12-20T12:41:23;15.00;;;13.53;;
76115;SDS011;64847;45.778;12.802;2023-12-20T12:44:50;15.27;;;13.97;;
76115;SDS011;64847;45.778;12.802;2023-12-20T12:48:14;15.70;;;14.23;;
76115;SDS011;64847;45.778;12.802;2023-12-20T12:51:38;15.93;;;14.40;;
76115;SDS011;64847;45.778;12.802;2023-12-20T12:55:02;14.77;;;13.37;;
76115;SDS011;64847;45.778;12.802;2023-12-20T12:58:26;15.70;;;14.30;;
76115;SDS011;64847;45.778;12.802;2023-12-20T13:01:50;16.53;;;14.93;;
76115;SDS011;64847;45.778;12.802;2023-12-20T13:05:14;15.43;;;13.97;;
76115;SDS011;64847;45.778;12.802;2023-12-20T13:08:38;15.37;;;13.87;;
76115;SDS011;64847;45.778;12.802;2023-12-20T13:12:03;15.87;;;14.37;;
76115;SDS011;64847;45.778;12.802;2023-12-20T13:15:29;16.43;;;14.83;;
76115;SDS011;64847;45.778;12.802;2023-12-20T13:18:53;17.50;;;15.77;;
76115;SDS011;64847;45.778;12.802;2023-12-20T13:22:17;17.27;;;15.57;;
76115;SDS011;64847;45.778;12.802;2023-12-20T13:25:43;17.83;;;15.97;;
76115;SDS011;64847;45.778;12.802;2023-12-20T13:29:07;15.83;;;14.27;;
76115;SDS011;64847;45.778;12.802;2023-12-20T13:32:31;17.00;;;15.40;;
76115;SDS011;64847;45.778;12.802;2023-12-20T13:35:55;15.67;;;14.17;;
76115;SDS011;64847;45.778;12.802;2023-12-20T13:39:19;18.27;;;16.40;;
76115;SDS011;64847;45.778;12.802;2023-12-20T13:42:43;18.30;;;16.50;;
76115;SDS011;64847;45.778;12.802;2023-12-20T13:46:07;17.00;;;15.40;;
76115;SDS011;64847;45.778;12.802;2023-12-20T13:49:31;17.20;;;15.57;;
76115;SDS011;64847;45.778;12.802;2023-12-20T13:52:55;18.23;;;16.43;;
76115;SDS011;64847;45.778;12.802;2023-12-20T13:56:19;19.70;;;17.80;;
76115;SDS011;64847;45.778;12.802;2023-12-20T13:59:43;18.73;;;16.90;;
76115;SDS011;64847;45.778;12.802;2023-12-20T14:03:07;19.57;;;17.67;;
76115;SDS011;64847;45.778;12.802;2023-12-20T14:06:32;20.40;;;18.40;;
76115;SDS011;64847;45.778;12.802;2023-12-20T14:09:56;20.30;;;18.30;;
76115;SDS011;64847;45.778;12.802;2023-12-20T14:13:19;21.43;;;19.23;;
76115;SDS011;64847;45.778;12.802;2023-12-20T14:16:44;21.00;;;18.70;;
76115;SDS011;64847;45.778;12.802;2023-12-20T14:20:08;19.47;;;17.57;;
76115;SDS011;64847;45.778;12.802;2023-12-20T14:23:32;20.37;;;18.33;;
76115;SDS011;64847;45.778;12.802;2023-12-20T14:26:55;20.80;;;18.70;;
76115;SDS011;64847;45.778;12.802;2023-12-20T14:30:20;18.70;;;16.80;;
76115;SDS011;64847;45.778;12.802;2023-12-20T14:33:44;20.20;;;18.10;;
76115;SDS011;64847;45.778;12.802;2023-12-20T14:37:08;21.37;;;19.17;;
76115;SDS011;64847;45.778;12.802;2023-12-20T14:40:31;20.43;;;18.43;;
76115;SDS011;64847;45.778;12.802;2023-12-20T14:43:56;21.00;;;18.80;;
76115;SDS011;64847;45.778;12.802;2023-12-20T14:47:19;20.60;;;18.63;;
76115;SDS011;64847;45.778;12.802;2023-12-20T14:50:43;20.30;;;18.13;;
76115;SDS011;64847;45.778;12.802;2023-12-20T14:54:13;21.40;;;19.30;;
76115;SDS011;64847;45.778;12.802;2023-12-20T14:57:37;18.97;;;17.07;;
76115;SDS011;64847;45.778;12.802;2023-12-20T15:01:02;19.73;;;17.80;;
76115;SDS011;64847;45.778;12.802;2023-12-20T15:04:29;19.90;;;17.80;;
76115;SDS011;64847;45.778;12.802;2023-12-20T15:07:53;21.67;;;19.57;;
76115;SDS011;64847;45.778;12.802;2023-12-20T15:11:17;19.00;;;17.03;;
76115;SDS011;64847;45.778;12.802;2023-12-20T15:14:41;18.87;;;16.77;;
76115;SDS011;64847;45.778;12.802;2023-12-20T15:18:05;17.97;;;16.17;;
76115;SDS011;64847;45.778;12.802;2023-12-20T15:21:30;19.33;;;17.33;;
76115;SDS011;64847;45.778;12.802;2023-12-20T15:24:54;18.20;;;16.17;;
76115;SDS011;64847;45.778;12.802;2023-12-20T15:28:18;17.90;;;16.10;;
76115;SDS011;64847;45.778;12.802;2023-12-20T15:31:46;17.70;;;15.93;;
76115;SDS011;64847;45.778;12.802;2023-12-20T15:35:10;18.00;;;16.17;;
76115;SDS011;64847;45.778;12.802;2023-12-20T15:38:34;16.23;;;14.63;;
76115;SDS011;64847;45.778;12.802;2023-12-20T15:41:57;16.53;;;14.93;;
76115;SDS011;64847;45.778;12.802;2023-12-20T15:45:22;15.77;;;14.27;;
76115;SDS011;64847;45.778;12.802;2023-12-20T15:48:46;17.13;;;15.43;;
76115;SDS011;64847;45.778;12.802;2023-12-20T15:52:12;19.07;;;15.97;;
76115;SDS011;64847;45.778;12.802;2023-12-20T15:55:36;17.43;;;15.57;;
76115;SDS011;64847;45.778;12.802;2023-12-20T15:59:01;16.73;;;15.03;;
76115;SDS011;64847;45.778;12.802;2023-12-20T16:02:25;16.30;;;14.60;;
76115;SDS011;64847;45.778;12.802;2023-12-20T16:05:49;16.57;;;14.87;;
76115;SDS011;64847;45.778;12.802;2023-12-20T16:09:13;15.77;;;14.17;;
76115;SDS011;64847;45.778;12.802;2023-12-20T16:12:37;17.67;;;15.77;;
76115;SDS011;64847;45.778;12.802;2023-12-20T16:16:01;17.03;;;15.37;;
76115;SDS011;64847;45.778;12.802;2023-12-20T16:19:25;18.17;;;16.23;;
76115;SDS011;64847;45.778;12.802;2023-12-20T16:22:50;19.80;;;17.77;;
76115;SDS011;64847;45.778;12.802;2023-12-20T16:26:13;18.73;;;16.73;;
76115;SDS011;64847;45.778;12.802;2023-12-20T16:29:37;17.43;;;15.63;;
76115;SDS011;64847;45.778;12.802;2023-12-20T16:33:02;18.63;;;16.63;;
76115;SDS011;64847;45.778;12.802;2023-12-20T16:36:27;19.27;;;17.07;;
76115;SDS011;64847;45.778;12.802;2023-12-20T16:39:54;17.83;;;15.97;;
76115;SDS011;64847;45.778;12.802;2023-12-20T16:43:18;18.57;;;16.77;;
76115;SDS011;64847;45.778;12.802;2023-12-20T16:46:42;18.70;;;16.70;;
76115;SDS011;64847;45.778;12.802;2023-12-20T16:50:06;17.23;;;15.53;;
76115;SDS011;64847;45.778;12.802;2023-12-20T16:53:30;18.97;;;16.97;;
76115;SDS011;64847;45.778;12.802;2023-12-20T16:56:55;18.90;;;16.93;;
76115;SDS011;64847;45.778;12.802;2023-12-20T17:00:19;18.40;;;16.53;;
76115;SDS011;64847;45.778;12.802;2023-12-20T17:03:44;17.43;;;15.63;;
76115;SDS011;64847;45.778;12.802;2023-12-20T17:07:08;20.43;;;18.23;;
76115;SDS011;64847;45.778;12.802;2023-12-20T17:10:32;17.70;;;15.87;;
76115;SDS011;64847;45.778;12.802;2023-12-20T17:13:56;20.20;;;18.20;;
76115;SDS011;64847;45.778;12.802;2023-12-20T17:17:20;18.67;;;16.70;;
76115;SDS011;64847;45.778;12.802;2023-12-20T17:20:44;18.07;;;16.23;;
76115;SDS011;64847;45.778;12.802;2023-12-20T17:24:08;18.90;;;16.97;;
76115;SDS011;64847;45.778;12.802;2023-12-20T17:27:32;17.53;;;15.73;;
76115;SDS011;64847;45.778;12.802;2023-12-20T17:30:56;20.77;;;17.57;;
76115;SDS011;64847;45.778;12.802;2023-12-20T17:34:20;18.40;;;16.23;;
76115;SDS011;64847;45.778;12.802;2023-12-20T17:37:52;18.60;;;16.60;;
76115;SDS011;64847;45.778;12.802;2023-12-20T17:41:16;18.67;;;16.67;;
76115;SDS011;64847;45.778;12.802;2023-12-20T17:44:40;21.70;;;18.20;;
76115;SDS011;64847;45.778;12.802;2023-12-20T17:48:04;19.43;;;17.43;;
76115;SDS011;64847;45.778;12.802;2023-12-20T17:51:29;19.80;;;17.20;;
76115;SDS011;64847;45.778;12.802;2023-12-20T17:54:52;20.33;;;18.03;;
76115;SDS011;64847;45.778;12.802;2023-12-20T17:58:16;21.77;;;18.67;;
76115;SDS011;64847;45.778;12.802;2023-12-20T18:01:40;20.50;;;18.37;;
76115;SDS011;64847;45.778;12.802;2023-12-20T18:05:04;19.87;;;17.77;;
76115;SDS011;64847;45.778;12.802;2023-12-20T18:08:28;20.60;;;18.23;;
76115;SDS011;64847;45.778;12.802;2023-12-20T18:11:52;21.33;;;18.70;;
76115;SDS011;64847;45.778;12.802;2023-12-20T18:15:16;20.27;;;18.10;;
76115;SDS011;64847;45.778;12.802;2023-12-20T18:18:40;21.43;;;18.47;;
76115;SDS011;64847;45.778;12.802;2023-12-20T18:22:04;20.90;;;17.43;;
76115;SDS011;64847;45.778;12.802;2023-12-20T18:25:29;18.43;;;16.40;;
76115;SDS011;64847;45.778;12.802;2023-12-20T18:28:53;21.57;;;18.63;;
76115;SDS011;64847;45.778;12.802;2023-12-20T18:32:18;19.70;;;17.27;;
76115;SDS011;64847;45.778;12.802;2023-12-20T18:35:42;17.53;;;15.77;;
76115;SDS011;64847;45.778;12.802;2023-12-20T18:39:08;16.30;;;14.53;;
76115;SDS011;64847;45.778;12.802;2023-12-20T18:42:32;17.50;;;15.63;;
76115;SDS011;64847;45.778;12.802;2023-12-20T18:45:56;16.10;;;14.47;;
76115;SDS011;64847;45.778;12.802;2023-12-20T18:49:20;17.83;;;14.17;;
76115;SDS011;64847;45.778;12.802;2023-12-20T18:52:45;14.70;;;13.20;;
76115;SDS011;64847;45.778;12.802;2023-12-20T18:56:09;14.63;;;13.23;;
76115;SDS011;64847;45.778;12.802;2023-12-20T18:59:35;15.17;;;13.57;;
76115;SDS011;64847;45.778;12.802;2023-12-20T19:02:59;13.77;;;12.33;;
76115;SDS011;64847;45.778;12.802;2023-12-20T19:06:24;13.77;;;12.27;;
76115;SDS011;64847;45.778;12.802;2023-12-20T19:09:48;12.80;;;11.50;;
76115;SDS011;64847;45.778;12.802;2023-12-20T19:13:12;11.40;;;10.20;;
76115;SDS011;64847;45.778;12.802;2023-12-20T19:16:38;12.80;;;10.50;;
76115;SDS011;64847;45.778;12.802;2023-12-20T19:20:02;12.30;;;11.03;;
76115;SDS011;64847;45.778;12.802;2023-12-20T19:23:32;11.87;;;10.67;;
76115;SDS011;64847;45.778;12.802;2023-12-20T19:26:56;12.83;;;11.00;;
76115;SDS011;64847;45.778;12.802;2023-12-20T19:30:20;11.63;;;10.43;;
76115;SDS011;64847;45.778;12.802;2023-12-20T19:33:44;11.90;;;9.90;;
76115;SDS011;64847;45.778;12.802;2023-12-20T19:37:08;10.77;;;9.67;;
76115;SDS011;64847;45.778;12.802;2023-12-20T19:40:32;11.00;;;9.80;;
76115;SDS011;64847;45.778;12.802;2023-12-20T19:43:57;12.57;;;10.10;;
76115;SDS011;64847;45.778;12.802;2023-12-20T19:47:21;10.87;;;9.77;;
76115;SDS011;64847;45.778;12.802;2023-12-20T19:50:45;11.73;;;9.60;;
76115;SDS011;64847;45.778;12.802;2023-12-20T19:54:09;11.07;;;9.97;;
76115;SDS011;64847;45.778;12.802;2023-12-20T19:57:33;11.03;;;9.57;;
76115;SDS011;64847;45.778;12.802;2023-12-20T20:00:58;10.47;;;9.47;;
76115;SDS011;64847;45.778;12.802;2023-12-20T20:04:22;11.27;;;9.33;;